sensor_id;sensor_type;location;lat;lon;timestamp;P1;durP1;ratioP1;P2;durP2;ratioP2
14603;SDS011;7388;51.078;13.740;2023-02-23T00:01:15;18.15;;;13.98;;
14603;SDS011;7388;51.078;13.740;2023-02-23T00:03:43;21.52;;;12.32;;
14603;SDS011;7388;51.078;13.740;2023-02-23T00:06:09;21.60;;;13.80;;
14603;SDS011;7388;51.078;13.740;2023-02-23T00:08:36;16.48;;;12.75;;
14603;SDS011;7388;51.078;13.740;2023-02-23T00:11:03;20.45;;;13.32;;
14603;SDS011;7388;51.078;13.740;2023-02-23T00:13:34;19.50;;;13.93;;
14603;SDS011;7388;51.078;13.740;2023-02-23T00:16:04;20.60;;;13.32;;
14603;SDS011;7388;51.078;13.740;2023-02-23T00:18:36;16.85;;;12.73;;
14603;SDS011;7388;51.078;13.740;2023-02-23T00:21:12;20.10;;;13.77;;
14603;SDS011;7388;51.078;13.740;2023-02-23T00:23:49;20.45;;;13.48;;
14603;SDS011;7388;51.078;13.740;2023-02-23T00:26:23;18.15;;;15.02;;
14603;SDS011;7388;51.078;13.740;2023-02-23T00:28:53;17.27;;;12.90;;
14603;SDS011;7388;51.078;13.740;2023-02-23T00:31:19;19.40;;;13.82;;
14603;SDS011;7388;51.078;13.740;2023-02-23T00:33:52;19.75;;;12.52;;
14603;SDS011;7388;51.078;13.740;2023-02-23T00:36:20;18.88;;;12.43;;
14603;SDS011;7388;51.078;13.740;2023-02-23T00:38:51;17.50;;;12.68;;
14603;SDS011;7388;51.078;13.740;2023-02-23T00:41:18;18.20;;;10.85;;
14603;SDS011;7388;51.078;13.740;2023-02-23T00:43:52;18.33;;;13.38;;
14603;SDS011;7388;51.078;13.740;2023-02-23T00:46:19;18.08;;;12.07;;
14603;SDS011;7388;51.078;13.740;2023-02-23T00:48:48;17.27;;;11.38;;
14603;SDS011;7388;51.078;13.740;2023-02-23T00:51:15;23.13;;;11.30;;
14603;SDS011;7388;51.078;13.740;2023-02-23T00:53:42;20.60;;;13.85;;
14603;SDS011;7388;51.078;13.740;2023-02-23T00:56:10;19.33;;;13.30;;
14603;SDS011;7388;51.078;13.740;2023-02-23T00:58:37;15.02;;;10.90;;
14603;SDS011;7388;51.078;13.740;2023-02-23T01:01:05;18.50;;;13.10;;
14603;SDS011;7388;51.078;13.740;2023-02-23T01:03:32;17.58;;;10.40;;
14603;SDS011;7388;51.078;13.740;2023-02-23T01:05:59;15.68;;;11.05;;
14603;SDS011;7388;51.078;13.740;2023-02-23T01:08:29;19.25;;;9.95;;
14603;SDS011;7388;51.078;13.740;2023-02-23T01:10:56;18.67;;;12.13;;
14603;SDS011;7388;51.078;13.740;2023-02-23T01:13:22;13.55;;;11.57;;
14603;SDS011;7388;51.078;13.740;2023-02-23T01:15:50;19.30;;;10.70;;
14603;SDS011;7388;51.078;13.740;2023-02-23T01:18:17;14.30;;;10.80;;
14603;SDS011;7388;51.078;13.740;2023-02-23T01:20:44;19.80;;;11.75;;
14603;SDS011;7388;51.078;13.740;2023-02-23T01:23:14;14.82;;;11.20;;
14603;SDS011;7388;51.078;13.740;2023-02-23T01:25:40;16.30;;;11.68;;
14603;SDS011;7388;51.078;13.740;2023-02-23T01:28:10;14.20;;;10.30;;
14603;SDS011;7388;51.078;13.740;2023-02-23T01:30:37;20.40;;;11.50;;
14603;SDS011;7388;51.078;13.740;2023-02-23T01:33:03;16.17;;;9.88;;
14603;SDS011;7388;51.078;13.740;2023-02-23T01:35:30;16.87;;;10.60;;
14603;SDS011;7388;51.078;13.740;2023-02-23T01:37:57;16.70;;;10.80;;
14603;SDS011;7388;51.078;13.740;2023-02-23T01:40:23;15.15;;;9.80;;
14603;SDS011;7388;51.078;13.740;2023-02-23T01:43:06;14.43;;;10.57;;
14603;SDS011;7388;51.078;13.740;2023-02-23T01:45:38;15.73;;;9.98;;
14603;SDS011;7388;51.078;13.740;2023-02-23T01:50:58;13.88;;;10.10;;
14603;SDS011;7388;51.078;13.740;2023-02-23T01:53:51;15.00;;;9.88;;
14603;SDS011;7388;51.078;13.740;2023-02-23T01:56:23;15.40;;;10.50;;
14603;SDS011;7388;51.078;13.740;2023-02-23T01:58:56;15.43;;;10.05;;
14603;SDS011;7388;51.078;13.740;2023-02-23T02:01:23;11.70;;;9.80;;
14603;SDS011;7388;51.078;13.740;2023-02-23T02:03:54;15.23;;;9.63;;
14603;SDS011;7388;51.078;13.740;2023-02-23T02:06:23;13.68;;;9.68;;
14603;SDS011;7388;51.078;13.740;2023-02-23T02:08:54;14.05;;;9.90;;
14603;SDS011;7388;51.078;13.740;2023-02-23T02:11:24;14.50;;;9.95;;
14603;SDS011;7388;51.078;13.740;2023-02-23T02:14:11;15.32;;;10.00;;
14603;SDS011;7388;51.078;13.740;2023-02-23T02:34:21;14.25;;;10.27;;
14603;SDS011;7388;51.078;13.740;2023-02-23T02:36:56;14.23;;;9.82;;
14603;SDS011;7388;51.078;13.740;2023-02-23T02:42:33;14.43;;;10.25;;
14603;SDS011;7388;51.078;13.740;2023-02-23T02:50:20;14.00;;;10.18;;
14603;SDS011;7388;51.078;13.740;2023-02-23T02:53:06;17.02;;;11.98;;
14603;SDS011;7388;51.078;13.740;2023-02-23T02:55:34;16.13;;;11.27;;
14603;SDS011;7388;51.078;13.740;2023-02-23T02:58:04;20.33;;;10.93;;
14603;SDS011;7388;51.078;13.740;2023-02-23T03:00:36;14.50;;;10.05;;
14603;SDS011;7388;51.078;13.740;2023-02-23T03:03:30;14.02;;;10.45;;
14603;SDS011;7388;51.078;13.740;2023-02-23T03:06:20;15.25;;;9.93;;
14603;SDS011;7388;51.078;13.740;2023-02-23T03:21:17;13.52;;;10.50;;
14603;SDS011;7388;51.078;13.740;2023-02-23T03:24:42;16.63;;;10.40;;
14603;SDS011;7388;51.078;13.740;2023-02-23T03:36:42;14.50;;;11.48;;
14603;SDS011;7388;51.078;13.740;2023-02-23T03:39:39;13.90;;;9.88;;
14603;SDS011;7388;51.078;13.740;2023-02-23T03:42:27;11.23;;;8.93;;
14603;SDS011;7388;51.078;13.740;2023-02-23T03:45:16;18.90;;;13.00;;
14603;SDS011;7388;51.078;13.740;2023-02-23T03:48:03;14.13;;;10.95;;
14603;SDS011;7388;51.078;13.740;2023-02-23T03:50:52;17.92;;;12.55;;
14603;SDS011;7388;51.078;13.740;2023-02-23T03:53:40;18.00;;;12.25;;
14603;SDS011;7388;51.078;13.740;2023-02-23T03:56:43;12.82;;;11.18;;
14603;SDS011;7388;51.078;13.740;2023-02-23T03:59:35;20.27;;;11.30;;
14603;SDS011;7388;51.078;13.740;2023-02-23T04:02:24;19.17;;;11.40;;
14603;SDS011;7388;51.078;13.740;2023-02-23T04:05:11;12.13;;;10.38;;
14603;SDS011;7388;51.078;13.740;2023-02-23T04:08:01;16.63;;;10.65;;
14603;SDS011;7388;51.078;13.740;2023-02-23T04:10:50;14.77;;;10.65;;
14603;SDS011;7388;51.078;13.740;2023-02-23T04:13:41;13.20;;;10.23;;
14603;SDS011;7388;51.078;13.740;2023-02-23T04:16:09;15.02;;;12.23;;
14603;SDS011;7388;51.078;13.740;2023-02-23T04:18:36;11.48;;;9.00;;
14603;SDS011;7388;51.078;13.740;2023-02-23T04:21:04;18.60;;;13.60;;
14603;SDS011;7388;51.078;13.740;2023-02-23T04:23:31;14.90;;;11.05;;
14603;SDS011;7388;51.078;13.740;2023-02-23T04:25:57;15.27;;;9.98;;
14603;SDS011;7388;51.078;13.740;2023-02-23T04:28:23;16.50;;;11.45;;
14603;SDS011;7388;51.078;13.740;2023-02-23T04:30:50;15.07;;;11.32;;
14603;SDS011;7388;51.078;13.740;2023-02-23T04:33:17;16.03;;;11.63;;
14603;SDS011;7388;51.078;13.740;2023-02-23T04:35:43;18.30;;;11.95;;
14603;SDS011;7388;51.078;13.740;2023-02-23T04:38:10;15.20;;;10.82;;
14603;SDS011;7388;51.078;13.740;2023-02-23T04:40:35;15.80;;;12.43;;
14603;SDS011;7388;51.078;13.740;2023-02-23T04:43:01;16.83;;;12.40;;
14603;SDS011;7388;51.078;13.740;2023-02-23T04:45:27;21.10;;;13.33;;
14603;SDS011;7388;51.078;13.740;2023-02-23T04:47:53;15.73;;;11.67;;
14603;SDS011;7388;51.078;13.740;2023-02-23T04:50:19;16.67;;;11.57;;
14603;SDS011;7388;51.078;13.740;2023-02-23T04:52:45;18.17;;;11.80;;
14603;SDS011;7388;51.078;13.740;2023-02-23T04:55:16;19.10;;;10.75;;
14603;SDS011;7388;51.078;13.740;2023-02-23T04:57:43;18.73;;;12.68;;
14603;SDS011;7388;51.078;13.740;2023-02-23T05:00:09;18.55;;;11.80;;
14603;SDS011;7388;51.078;13.740;2023-02-23T05:02:36;16.67;;;11.23;;
14603;SDS011;7388;51.078;13.740;2023-02-23T05:05:02;18.40;;;11.00;;
14603;SDS011;7388;51.078;13.740;2023-02-23T05:07:28;17.20;;;12.57;;
14603;SDS011;7388;51.078;13.740;2023-02-23T05:09:53;17.33;;;12.43;;
14603;SDS011;7388;51.078;13.740;2023-02-23T05:12:19;20.20;;;13.17;;
14603;SDS011;7388;51.078;13.740;2023-02-23T05:14:45;16.67;;;11.70;;
14603;SDS011;7388;51.078;13.740;2023-02-23T05:17:11;15.80;;;10.60;;
14603;SDS011;7388;51.078;13.740;2023-02-23T05:19:37;18.77;;;13.13;;
14603;SDS011;7388;51.078;13.740;2023-02-23T05:22:02;20.10;;;12.13;;
14603;SDS011;7388;51.078;13.740;2023-02-23T05:24:28;14.23;;;10.80;;
14603;SDS011;7388;51.078;13.740;2023-02-23T05:26:54;20.13;;;11.93;;
14603;SDS011;7388;51.078;13.740;2023-02-23T05:29:20;17.13;;;11.23;;
14603;SDS011;7388;51.078;13.740;2023-02-23T05:31:46;18.10;;;11.60;;
14603;SDS011;7388;51.078;13.740;2023-02-23T05:34:12;19.27;;;11.75;;
14603;SDS011;7388;51.078;13.740;2023-02-23T05:36:40;16.08;;;12.20;;
14603;SDS011;7388;51.078;13.740;2023-02-23T05:39:07;15.75;;;11.18;;
14603;SDS011;7388;51.078;13.740;2023-02-23T05:41:33;17.75;;;12.43;;
14603;SDS011;7388;51.078;13.740;2023-02-23T05:43:59;19.43;;;12.10;;
14603;SDS011;7388;51.078;13.740;2023-02-23T05:46:25;21.55;;;12.60;;
14603;SDS011;7388;51.078;13.740;2023-02-23T05:48:56;20.33;;;11.98;;
14603;SDS011;7388;51.078;13.740;2023-02-23T05:51:23;17.23;;;13.93;;
14603;SDS011;7388;51.078;13.740;2023-02-23T05:53:49;19.45;;;14.45;;
14603;SDS011;7388;51.078;13.740;2023-02-23T05:56:16;20.17;;;13.70;;
14603;SDS011;7388;51.078;13.740;2023-02-23T05:58:48;18.88;;;13.82;;
14603;SDS011;7388;51.078;13.740;2023-02-23T06:01:14;19.38;;;14.02;;
14603;SDS011;7388;51.078;13.740;2023-02-23T06:03:41;18.15;;;12.27;;
14603;SDS011;7388;51.078;13.740;2023-02-23T06:06:08;15.98;;;12.07;;
14603;SDS011;7388;51.078;13.740;2023-02-23T06:08:34;20.60;;;13.02;;
14603;SDS011;7388;51.078;13.740;2023-02-23T06:11:00;26.67;;;17.80;;
14603;SDS011;7388;51.078;13.740;2023-02-23T06:13:26;17.70;;;11.70;;
14603;SDS011;7388;51.078;13.740;2023-02-23T06:15:52;18.73;;;12.70;;
14603;SDS011;7388;51.078;13.740;2023-02-23T06:18:18;19.50;;;12.13;;
14603;SDS011;7388;51.078;13.740;2023-02-23T06:20:45;20.85;;;14.90;;
14603;SDS011;7388;51.078;13.740;2023-02-23T06:23:12;21.05;;;12.90;;
14603;SDS011;7388;51.078;13.740;2023-02-23T06:25:40;20.98;;;13.40;;
14603;SDS011;7388;51.078;13.740;2023-02-23T06:28:10;18.05;;;14.02;;
14603;SDS011;7388;51.078;13.740;2023-02-23T06:30:36;24.30;;;15.40;;
14603;SDS011;7388;51.078;13.740;2023-02-23T06:33:03;19.00;;;14.65;;
14603;SDS011;7388;51.078;13.740;2023-02-23T06:35:29;23.67;;;15.85;;
14603;SDS011;7388;51.078;13.740;2023-02-23T06:37:56;20.48;;;14.85;;
14603;SDS011;7388;51.078;13.740;2023-02-23T06:40:23;29.80;;;12.27;;
14603;SDS011;7388;51.078;13.740;2023-02-23T06:42:49;20.48;;;13.75;;
14603;SDS011;7388;51.078;13.740;2023-02-23T06:45:15;20.10;;;13.95;;
14603;SDS011;7388;51.078;13.740;2023-02-23T06:47:43;16.98;;;12.52;;
14603;SDS011;7388;51.078;13.740;2023-02-23T06:50:09;20.92;;;14.38;;
14603;SDS011;7388;51.078;13.740;2023-02-23T06:52:36;20.00;;;12.77;;
14603;SDS011;7388;51.078;13.740;2023-02-23T06:55:02;22.92;;;13.23;;
14603;SDS011;7388;51.078;13.740;2023-02-23T06:57:28;19.73;;;13.85;;
14603;SDS011;7388;51.078;13.740;2023-02-23T06:59:54;19.50;;;14.90;;
14603;SDS011;7388;51.078;13.740;2023-02-23T07:02:21;24.17;;;16.20;;
14603;SDS011;7388;51.078;13.740;2023-02-23T07:04:47;32.40;;;17.40;;
14603;SDS011;7388;51.078;13.740;2023-02-23T07:07:12;25.70;;;17.77;;
14603;SDS011;7388;51.078;13.740;2023-02-23T07:09:39;28.65;;;18.45;;
14603;SDS011;7388;51.078;13.740;2023-02-23T07:12:07;30.50;;;20.98;;
14603;SDS011;7388;51.078;13.740;2023-02-23T07:14:33;27.95;;;19.38;;
14603;SDS011;7388;51.078;13.740;2023-02-23T07:16:59;29.37;;;20.37;;
14603;SDS011;7388;51.078;13.740;2023-02-23T07:19:25;26.67;;;18.88;;
14603;SDS011;7388;51.078;13.740;2023-02-23T07:21:51;30.50;;;18.83;;
14603;SDS011;7388;51.078;13.740;2023-02-23T07:24:17;29.38;;;18.50;;
14603;SDS011;7388;51.078;13.740;2023-02-23T07:26:43;25.77;;;19.33;;
14603;SDS011;7388;51.078;13.740;2023-02-23T07:29:11;26.30;;;18.67;;
14603;SDS011;7388;51.078;13.740;2023-02-23T07:31:38;30.58;;;17.92;;
14603;SDS011;7388;51.078;13.740;2023-02-23T07:34:04;30.55;;;18.52;;
14603;SDS011;7388;51.078;13.740;2023-02-23T07:36:30;32.72;;;18.70;;
14603;SDS011;7388;51.078;13.740;2023-02-23T07:38:56;27.50;;;17.77;;
14603;SDS011;7388;51.078;13.740;2023-02-23T07:41:22;25.77;;;18.17;;
14603;SDS011;7388;51.078;13.740;2023-02-23T07:43:48;28.03;;;18.70;;
14603;SDS011;7388;51.078;13.740;2023-02-23T07:46:14;29.37;;;18.93;;
14603;SDS011;7388;51.078;13.740;2023-02-23T07:48:40;28.45;;;18.00;;
14603;SDS011;7388;51.078;13.740;2023-02-23T07:51:12;27.52;;;19.20;;
14603;SDS011;7388;51.078;13.740;2023-02-23T07:53:40;30.65;;;18.85;;
14603;SDS011;7388;51.078;13.740;2023-02-23T07:56:06;25.45;;;18.35;;
14603;SDS011;7388;51.078;13.740;2023-02-23T07:58:35;28.10;;;18.02;;
14603;SDS011;7388;51.078;13.740;2023-02-23T08:01:05;28.95;;;18.20;;
14603;SDS011;7388;51.078;13.740;2023-02-23T08:03:32;26.33;;;19.65;;
14603;SDS011;7388;51.078;13.740;2023-02-23T08:05:57;28.38;;;18.30;;
14603;SDS011;7388;51.078;13.740;2023-02-23T08:08:24;27.10;;;19.63;;
14603;SDS011;7388;51.078;13.740;2023-02-23T08:10:50;27.58;;;19.63;;
14603;SDS011;7388;51.078;13.740;2023-02-23T08:13:22;26.80;;;18.33;;
14603;SDS011;7388;51.078;13.740;2023-02-23T08:15:48;27.30;;;19.90;;
14603;SDS011;7388;51.078;13.740;2023-02-23T08:18:14;26.30;;;17.83;;
14603;SDS011;7388;51.078;13.740;2023-02-23T08:20:40;34.07;;;21.23;;
14603;SDS011;7388;51.078;13.740;2023-02-23T08:23:06;22.67;;;17.97;;
14603;SDS011;7388;51.078;13.740;2023-02-23T08:25:31;25.93;;;18.93;;
14603;SDS011;7388;51.078;13.740;2023-02-23T08:27:57;28.63;;;18.73;;
14603;SDS011;7388;51.078;13.740;2023-02-23T08:30:28;26.75;;;18.65;;
14603;SDS011;7388;51.078;13.740;2023-02-23T08:32:55;23.10;;;17.48;;
14603;SDS011;7388;51.078;13.740;2023-02-23T08:35:20;31.27;;;18.47;;
14603;SDS011;7388;51.078;13.740;2023-02-23T08:37:47;26.90;;;17.70;;
14603;SDS011;7388;51.078;13.740;2023-02-23T08:40:13;27.60;;;19.07;;
14603;SDS011;7388;51.078;13.740;2023-02-23T08:42:43;24.65;;;20.25;;
14603;SDS011;7388;51.078;13.740;2023-02-23T08:45:09;27.93;;;19.77;;
14603;SDS011;7388;51.078;13.740;2023-02-23T08:47:36;23.02;;;16.90;;
14603;SDS011;7388;51.078;13.740;2023-02-23T08:50:03;34.13;;;18.70;;
14603;SDS011;7388;51.078;13.740;2023-02-23T08:52:29;26.40;;;20.50;;
14603;SDS011;7388;51.078;13.740;2023-02-23T08:54:55;24.83;;;18.70;;
14603;SDS011;7388;51.078;13.740;2023-02-23T08:57:21;27.40;;;20.17;;
14603;SDS011;7388;51.078;13.740;2023-02-23T08:59:47;26.30;;;19.20;;
14603;SDS011;7388;51.078;13.740;2023-02-23T09:02:13;22.77;;;16.87;;
14603;SDS011;7388;51.078;13.740;2023-02-23T09:04:39;26.52;;;18.50;;
14603;SDS011;7388;51.078;13.740;2023-02-23T09:07:15;33.22;;;19.38;;
14603;SDS011;7388;51.078;13.740;2023-02-23T09:09:41;29.33;;;18.52;;
14603;SDS011;7388;51.078;13.740;2023-02-23T09:12:07;27.30;;;17.63;;
14603;SDS011;7388;51.078;13.740;2023-02-23T09:14:33;25.63;;;18.10;;
14603;SDS011;7388;51.078;13.740;2023-02-23T09:17:00;23.50;;;17.25;;
14603;SDS011;7388;51.078;13.740;2023-02-23T09:19:27;24.65;;;17.55;;
14603;SDS011;7388;51.078;13.740;2023-02-23T09:21:52;20.67;;;14.20;;
14603;SDS011;7388;51.078;13.740;2023-02-23T09:24:19;28.40;;;19.00;;
14603;SDS011;7388;51.078;13.740;2023-02-23T09:26:46;21.73;;;15.60;;
14603;SDS011;7388;51.078;13.740;2023-02-23T09:29:12;20.38;;;17.17;;
14603;SDS011;7388;51.078;13.740;2023-02-23T09:31:38;23.53;;;16.10;;
14603;SDS011;7388;51.078;13.740;2023-02-23T09:34:04;20.33;;;15.30;;
14603;SDS011;7388;51.078;13.740;2023-02-23T09:36:30;23.17;;;16.80;;
14603;SDS011;7388;51.078;13.740;2023-02-23T09:38:56;22.57;;;16.93;;
14603;SDS011;7388;51.078;13.740;2023-02-23T09:49:42;26.52;;;16.77;;
14603;SDS011;7388;51.078;13.740;2023-02-23T09:52:14;21.45;;;15.65;;
14603;SDS011;7388;51.078;13.740;2023-02-23T09:54:46;37.58;;;28.00;;
14603;SDS011;7388;51.078;13.740;2023-02-23T09:57:20;22.97;;;16.00;;
14603;SDS011;7388;51.078;13.740;2023-02-23T09:59:56;18.88;;;13.35;;
14603;SDS011;7388;51.078;13.740;2023-02-23T10:02:28;23.88;;;17.10;;
14603;SDS011;7388;51.078;13.740;2023-02-23T10:05:04;20.80;;;14.70;;
14603;SDS011;7388;51.078;13.740;2023-02-23T10:07:37;21.23;;;15.95;;
14603;SDS011;7388;51.078;13.740;2023-02-23T10:13:07;18.50;;;14.50;;
14603;SDS011;7388;51.078;13.740;2023-02-23T10:21:40;21.50;;;13.82;;
14603;SDS011;7388;51.078;13.740;2023-02-23T10:24:11;20.92;;;15.02;;
14603;SDS011;7388;51.078;13.740;2023-02-23T10:26:49;20.00;;;14.82;;
14603;SDS011;7388;51.078;13.740;2023-02-23T10:29:26;19.38;;;15.00;;
14603;SDS011;7388;51.078;13.740;2023-02-23T10:31:59;17.48;;;13.93;;
14603;SDS011;7388;51.078;13.740;2023-02-23T10:34:30;39.45;;;35.17;;
14603;SDS011;7388;51.078;13.740;2023-02-23T10:37:00;24.58;;;18.63;;
14603;SDS011;7388;51.078;13.740;2023-02-23T10:39:29;18.10;;;14.65;;
14603;SDS011;7388;51.078;13.740;2023-02-23T10:41:56;20.00;;;14.82;;
14603;SDS011;7388;51.078;13.740;2023-02-23T10:44:24;18.48;;;14.98;;
14603;SDS011;7388;51.078;13.740;2023-02-23T10:46:53;18.23;;;13.23;;
14603;SDS011;7388;51.078;13.740;2023-02-23T10:49:21;24.02;;;16.15;;
14603;SDS011;7388;51.078;13.740;2023-02-23T10:51:54;20.40;;;16.42;;
14603;SDS011;7388;51.078;13.740;2023-02-23T10:54:37;18.20;;;14.70;;
14603;SDS011;7388;51.078;13.740;2023-02-23T10:57:09;19.25;;;15.48;;
14603;SDS011;7388;51.078;13.740;2023-02-23T10:59:56;19.98;;;15.43;;
14603;SDS011;7388;51.078;13.740;2023-02-23T11:02:23;19.70;;;14.70;;
14603;SDS011;7388;51.078;13.740;2023-02-23T11:04:54;17.80;;;15.02;;
14603;SDS011;7388;51.078;13.740;2023-02-23T11:07:23;26.02;;;16.85;;
14603;SDS011;7388;51.078;13.740;2023-02-23T11:09:54;21.17;;;14.10;;
14603;SDS011;7388;51.078;13.740;2023-02-23T11:14:52;21.52;;;14.40;;
14603;SDS011;7388;51.078;13.740;2023-02-23T11:20:21;18.95;;;15.82;;
14603;SDS011;7388;51.078;13.740;2023-02-23T11:22:53;17.67;;;14.60;;
14603;SDS011;7388;51.078;13.740;2023-02-23T11:25:29;21.58;;;14.10;;
14603;SDS011;7388;51.078;13.740;2023-02-23T11:27:56;20.15;;;14.38;;
14603;SDS011;7388;51.078;13.740;2023-02-23T11:30:28;17.45;;;13.35;;
14603;SDS011;7388;51.078;13.740;2023-02-23T11:33:01;17.70;;;14.15;;
14603;SDS011;7388;51.078;13.740;2023-02-23T11:35:35;16.40;;;13.77;;
14603;SDS011;7388;51.078;13.740;2023-02-23T11:41:01;14.20;;;12.70;;
14603;SDS011;7388;51.078;13.740;2023-02-23T11:43:28;15.13;;;13.00;;
14603;SDS011;7388;51.078;13.740;2023-02-23T11:45:56;17.23;;;12.57;;
14603;SDS011;7388;51.078;13.740;2023-02-23T11:48:26;14.38;;;11.80;;
14603;SDS011;7388;51.078;13.740;2023-02-23T11:50:56;16.63;;;11.48;;
14603;SDS011;7388;51.078;13.740;2023-02-23T11:53:44;13.32;;;11.40;;
14603;SDS011;7388;51.078;13.740;2023-02-23T11:56:10;14.65;;;12.85;;
14603;SDS011;7388;51.078;13.740;2023-02-23T11:58:44;14.02;;;12.27;;
14603;SDS011;7388;51.078;13.740;2023-02-23T12:01:14;17.85;;;13.45;;
14603;SDS011;7388;51.078;13.740;2023-02-23T12:03:47;15.43;;;12.77;;
14603;SDS011;7388;51.078;13.740;2023-02-23T12:08:54;18.20;;;12.65;;
14603;SDS011;7388;51.078;13.740;2023-02-23T12:11:30;14.03;;;12.30;;
14603;SDS011;7388;51.078;13.740;2023-02-23T12:14:02;13.97;;;11.83;;
14603;SDS011;7388;51.078;13.740;2023-02-23T12:16:40;13.60;;;12.00;;
14603;SDS011;7388;51.078;13.740;2023-02-23T12:27:39;14.27;;;11.47;;
14603;SDS011;7388;51.078;13.740;2023-02-23T12:33:10;16.17;;;12.25;;
14603;SDS011;7388;51.078;13.740;2023-02-23T12:38:25;16.40;;;12.23;;
14603;SDS011;7388;51.078;13.740;2023-02-23T12:41:15;19.02;;;12.43;;
14603;SDS011;7388;51.078;13.740;2023-02-23T12:43:54;16.40;;;11.93;;
14603;SDS011;7388;51.078;13.740;2023-02-23T12:46:25;15.23;;;11.35;;
14603;SDS011;7388;51.078;13.740;2023-02-23T12:51:49;16.08;;;11.70;;
14603;SDS011;7388;51.078;13.740;2023-02-23T12:54:16;16.52;;;11.13;;
14603;SDS011;7388;51.078;13.740;2023-02-23T12:56:57;15.85;;;11.77;;
14603;SDS011;7388;51.078;13.740;2023-02-23T13:02:20;13.73;;;10.73;;
14603;SDS011;7388;51.078;13.740;2023-02-23T13:18:44;16.57;;;11.53;;
14603;SDS011;7388;51.078;13.740;2023-02-23T13:24:05;18.27;;;12.50;;
14603;SDS011;7388;51.078;13.740;2023-02-23T13:29:46;14.53;;;12.83;;
14603;SDS011;7388;51.078;13.740;2023-02-23T13:32:16;12.67;;;11.13;;
14603;SDS011;7388;51.078;13.740;2023-02-23T13:34:50;15.37;;;11.37;;
14603;SDS011;7388;51.078;13.740;2023-02-23T13:37:17;14.20;;;12.23;;
14603;SDS011;7388;51.078;13.740;2023-02-23T13:56:47;10.90;;;9.80;;
14603;SDS011;7388;51.078;13.740;2023-02-23T13:59:18;13.45;;;9.80;;
14603;SDS011;7388;51.078;13.740;2023-02-23T14:01:50;14.25;;;11.77;;
14603;SDS011;7388;51.078;13.740;2023-02-23T14:04:21;14.63;;;9.32;;
14603;SDS011;7388;51.078;13.740;2023-02-23T14:10:13;15.80;;;11.82;;
14603;SDS011;7388;51.078;13.740;2023-02-23T14:12:23;10.60;;;9.50;;
14603;SDS011;7388;51.078;13.740;2023-02-23T14:14:49;12.95;;;10.00;;
14603;SDS011;7388;51.078;13.740;2023-02-23T14:20:01;12.35;;;9.07;;
14603;SDS011;7388;51.078;13.740;2023-02-23T14:22:35;11.95;;;9.60;;
14603;SDS011;7388;51.078;13.740;2023-02-23T14:27:59;17.58;;;12.20;;
14603;SDS011;7388;51.078;13.740;2023-02-23T14:30:27;18.25;;;12.25;;
14603;SDS011;7388;51.078;13.740;2023-02-23T14:33:07;13.75;;;11.23;;
14603;SDS011;7388;51.078;13.740;2023-02-23T14:44:26;15.63;;;11.75;;
14603;SDS011;7388;51.078;13.740;2023-02-23T14:47:14;15.82;;;12.65;;
14603;SDS011;7388;51.078;13.740;2023-02-23T14:50:05;15.82;;;12.40;;
14603;SDS011;7388;51.078;13.740;2023-02-23T14:52:40;18.02;;;12.15;;
14603;SDS011;7388;51.078;13.740;2023-02-23T14:55:23;16.73;;;13.87;;
14603;SDS011;7388;51.078;13.740;2023-02-23T14:57:50;19.35;;;14.40;;
14603;SDS011;7388;51.078;13.740;2023-02-23T15:03:09;20.90;;;16.05;;
14603;SDS011;7388;51.078;13.740;2023-02-23T15:05:47;19.58;;;15.75;;
14603;SDS011;7388;51.078;13.740;2023-02-23T15:08:19;25.70;;;17.17;;
14603;SDS011;7388;51.078;13.740;2023-02-23T15:10:48;26.80;;;17.73;;
14603;SDS011;7388;51.078;13.740;2023-02-23T15:13:27;30.88;;;18.58;;
14603;SDS011;7388;51.078;13.740;2023-02-23T15:16:25;26.02;;;18.98;;
14603;SDS011;7388;51.078;13.740;2023-02-23T15:19:01;24.30;;;17.33;;
14603;SDS011;7388;51.078;13.740;2023-02-23T15:21:28;28.73;;;17.52;;
14603;SDS011;7388;51.078;13.740;2023-02-23T15:24:13;22.45;;;17.20;;
14603;SDS011;7388;51.078;13.740;2023-02-23T15:26:45;26.45;;;19.40;;
14603;SDS011;7388;51.078;13.740;2023-02-23T15:29:12;20.92;;;16.50;;
14603;SDS011;7388;51.078;13.740;2023-02-23T15:31:40;22.58;;;18.15;;
14603;SDS011;7388;51.078;13.740;2023-02-23T15:34:14;23.38;;;19.27;;
14603;SDS011;7388;51.078;13.740;2023-02-23T15:36:47;27.25;;;18.52;;
14603;SDS011;7388;51.078;13.740;2023-02-23T15:39:17;26.25;;;20.27;;
14603;SDS011;7388;51.078;13.740;2023-02-23T15:41:50;25.70;;;19.95;;
14603;SDS011;7388;51.078;13.740;2023-02-23T15:44:36;24.13;;;18.88;;
14603;SDS011;7388;51.078;13.740;2023-02-23T15:47:03;23.37;;;19.37;;
14603;SDS011;7388;51.078;13.740;2023-02-23T15:49:34;25.45;;;18.58;;
14603;SDS011;7388;51.078;13.740;2023-02-23T15:52:16;32.80;;;18.92;;
14603;SDS011;7388;51.078;13.740;2023-02-23T15:54:47;21.85;;;17.30;;
14603;SDS011;7388;51.078;13.740;2023-02-23T15:57:26;26.42;;;17.30;;
14603;SDS011;7388;51.078;13.740;2023-02-23T15:59:56;23.23;;;18.08;;
14603;SDS011;7388;51.078;13.740;2023-02-23T16:02:23;25.75;;;18.05;;
14603;SDS011;7388;51.078;13.740;2023-02-23T16:04:50;27.98;;;20.38;;
14603;SDS011;7388;51.078;13.740;2023-02-23T16:07:24;25.13;;;18.13;;
14603;SDS011;7388;51.078;13.740;2023-02-23T16:09:53;26.95;;;19.88;;
14603;SDS011;7388;51.078;13.740;2023-02-23T16:12:35;26.73;;;21.52;;
14603;SDS011;7388;51.078;13.740;2023-02-23T16:15:22;22.60;;;18.13;;
14603;SDS011;7388;51.078;13.740;2023-02-23T16:17:55;25.17;;;19.25;;
14603;SDS011;7388;51.078;13.740;2023-02-23T16:20:33;28.45;;;21.70;;
14603;SDS011;7388;51.078;13.740;2023-02-23T16:23:03;26.60;;;20.70;;
14603;SDS011;7388;51.078;13.740;2023-02-23T16:25:30;27.88;;;21.17;;
14603;SDS011;7388;51.078;13.740;2023-02-23T16:27:58;25.92;;;20.70;;
14603;SDS011;7388;51.078;13.740;2023-02-23T16:33:05;24.48;;;19.15;;
14603;SDS011;7388;51.078;13.740;2023-02-23T16:35:50;26.13;;;21.40;;
14603;SDS011;7388;51.078;13.740;2023-02-23T16:38:22;26.35;;;22.67;;
14603;SDS011;7388;51.078;13.740;2023-02-23T16:40:50;30.02;;;23.20;;
14603;SDS011;7388;51.078;13.740;2023-02-23T16:43:17;28.52;;;24.10;;
14603;SDS011;7388;51.078;13.740;2023-02-23T16:45:46;31.90;;;22.58;;
14603;SDS011;7388;51.078;13.740;2023-02-23T16:48:15;29.23;;;21.63;;
14603;SDS011;7388;51.078;13.740;2023-02-23T16:50:42;28.00;;;22.30;;
14603;SDS011;7388;51.078;13.740;2023-02-23T16:53:09;27.42;;;22.85;;
14603;SDS011;7388;51.078;13.740;2023-02-23T16:55:37;22.70;;;18.83;;
14603;SDS011;7388;51.078;13.740;2023-02-23T16:58:40;26.17;;;20.88;;
14603;SDS011;7388;51.078;13.740;2023-02-23T17:01:12;32.30;;;23.73;;
14603;SDS011;7388;51.078;13.740;2023-02-23T17:03:39;29.25;;;22.38;;
14603;SDS011;7388;51.078;13.740;2023-02-23T17:06:06;32.80;;;25.38;;
14603;SDS011;7388;51.078;13.740;2023-02-23T17:08:31;32.33;;;22.10;;
14603;SDS011;7388;51.078;13.740;2023-02-23T17:11:18;34.00;;;25.20;;
14603;SDS011;7388;51.078;13.740;2023-02-23T17:13:44;29.52;;;22.30;;
14603;SDS011;7388;51.078;13.740;2023-02-23T17:16:10;32.43;;;25.53;;
14603;SDS011;7388;51.078;13.740;2023-02-23T17:18:37;28.52;;;22.85;;
14603;SDS011;7388;51.078;13.740;2023-02-23T17:21:08;32.80;;;24.27;;
14603;SDS011;7388;51.078;13.740;2023-02-23T17:23:38;27.70;;;20.48;;